Terminal Aerodrome Forecast
Issued by NWS

Home | Current Version | Previous Version | Text Only | Print | Product List | Glossary Off
Versions: 1 2 3 4 5 6 7 8 9 10 11 12 13 14 15 16

000
FTUS43 KBIS 250500 RRA
TAFMOT
TAF
KMOT 250544Z 2506/2606 04006KT 1 1/2SM -SN OVC018
      TEMPO 2506/2509 3SM -SN BR BKN025 OVC035
     FM250900 01012KT P6SM SCT020 OVC050
     FM251500 33015KT P6SM SCT040 BKN120
     FM252100 29013KT P6SM SKC=

USA.gov is the U.S. government's official web portal to all federal, state and local government web resources and services.